sensor_id;sensor_type;location;lat;lon;timestamp;temperature;humidity
4461;DHT22;2243;48.812;9.232;2023-05-07T00:00:53;15.20;99.90
4461;DHT22;2243;48.812;9.232;2023-05-07T00:03:25;15.10;99.90
4461;DHT22;2243;48.812;9.232;2023-05-07T00:05:57;15.20;99.90
4461;DHT22;2243;48.812;9.232;2023-05-07T00:08:28;15.10;99.90
4461;DHT22;2243;48.812;9.232;2023-05-07T00:10:59;15.10;99.90
4461;DHT22;2243;48.812;9.232;2023-05-07T00:13:30;15.00;99.90
4461;DHT22;2243;48.812;9.232;2023-05-07T00:16:05;15.00;99.90
4461;DHT22;2243;48.812;9.232;2023-05-07T00:18:36;15.20;99.90
4461;DHT22;2243;48.812;9.232;2023-05-07T00:21:07;15.20;99.90
4461;DHT22;2243;48.812;9.232;2023-05-07T00:23:38;15.10;99.90
4461;DHT22;2243;48.812;9.232;2023-05-07T00:26:09;15.10;99.90
4461;DHT22;2243;48.812;9.232;2023-05-07T00:28:40;15.10;99.90
4461;DHT22;2243;48.812;9.232;2023-05-07T00:31:11;15.10;99.90
4461;DHT22;2243;48.812;9.232;2023-05-07T00:33:43;15.10;99.90
4461;DHT22;2243;48.812;9.232;2023-05-07T00:36:13;15.10;99.90
4461;DHT22;2243;48.812;9.232;2023-05-07T00:38:44;15.10;99.90
4461;DHT22;2243;48.812;9.232;2023-05-07T00:41:15;15.10;99.90
4461;DHT22;2243;48.812;9.232;2023-05-07T00:43:46;15.10;99.90
4461;DHT22;2243;48.812;9.232;2023-05-07T00:46:20;15.00;99.90
4461;DHT22;2243;48.812;9.232;2023-05-07T00:48:51;15.00;99.90
4461;DHT22;2243;48.812;9.232;2023-05-07T00:51:24;15.00;99.90
4461;DHT22;2243;48.812;9.232;2023-05-07T00:53:57;15.00;99.90
4461;DHT22;2243;48.812;9.232;2023-05-07T00:56:28;14.90;99.90
4461;DHT22;2243;48.812;9.232;2023-05-07T00:59:01;14.90;99.90
4461;DHT22;2243;48.812;9.232;2023-05-07T01:01:33;15.00;99.90
4461;DHT22;2243;48.812;9.232;2023-05-07T01:04:04;15.00;99.90
4461;DHT22;2243;48.812;9.232;2023-05-07T01:06:36;14.90;99.90
4461;DHT22;2243;48.812;9.232;2023-05-07T01:09:07;14.90;99.90
4461;DHT22;2243;48.812;9.232;2023-05-07T01:11:40;14.80;99.90
4461;DHT22;2243;48.812;9.232;2023-05-07T01:14:11;14.70;99.90
4461;DHT22;2243;48.812;9.232;2023-05-07T01:16:42;14.60;99.90
4461;DHT22;2243;48.812;9.232;2023-05-07T01:19:14;14.60;99.90
4461;DHT22;2243;48.812;9.232;2023-05-07T01:21:49;14.60;99.90
4461;DHT22;2243;48.812;9.232;2023-05-07T01:24:22;14.70;99.90
4461;DHT22;2243;48.812;9.232;2023-05-07T01:26:53;14.60;99.90
4461;DHT22;2243;48.812;9.232;2023-05-07T01:29:23;14.60;99.90
4461;DHT22;2243;48.812;9.232;2023-05-07T01:31:56;14.70;99.90
4461;DHT22;2243;48.812;9.232;2023-05-07T01:34:31;14.50;99.90
4461;DHT22;2243;48.812;9.232;2023-05-07T01:37:03;14.50;99.90
4461;DHT22;2243;48.812;9.232;2023-05-07T01:39:37;14.50;99.90
4461;DHT22;2243;48.812;9.232;2023-05-07T01:42:09;14.60;99.90
4461;DHT22;2243;48.812;9.232;2023-05-07T01:44:40;14.40;99.90
4461;DHT22;2243;48.812;9.232;2023-05-07T01:47:12;14.40;99.90
4461;DHT22;2243;48.812;9.232;2023-05-07T01:49:44;14.40;99.90
4461;DHT22;2243;48.812;9.232;2023-05-07T01:52:15;14.40;99.90
4461;DHT22;2243;48.812;9.232;2023-05-07T01:54:46;14.40;99.90
4461;DHT22;2243;48.812;9.232;2023-05-07T01:57:17;14.40;99.90
4461;DHT22;2243;48.812;9.232;2023-05-07T01:59:48;14.40;99.90
4461;DHT22;2243;48.812;9.232;2023-05-07T02:02:19;14.40;99.90
4461;DHT22;2243;48.812;9.232;2023-05-07T02:04:50;14.30;99.90
4461;DHT22;2243;48.812;9.232;2023-05-07T02:07:21;14.40;99.90
4461;DHT22;2243;48.812;9.232;2023-05-07T02:09:52;14.30;99.90
4461;DHT22;2243;48.812;9.232;2023-05-07T02:12:23;14.30;99.90
4461;DHT22;2243;48.812;9.232;2023-05-07T02:14:54;14.30;99.90
4461;DHT22;2243;48.812;9.232;2023-05-07T02:17:25;14.30;99.90
4461;DHT22;2243;48.812;9.232;2023-05-07T02:19:56;14.20;99.90
4461;DHT22;2243;48.812;9.232;2023-05-07T02:22:27;14.10;99.90
4461;DHT22;2243;48.812;9.232;2023-05-07T02:24:58;14.00;99.90
4461;DHT22;2243;48.812;9.232;2023-05-07T02:27:29;14.00;99.90
4461;DHT22;2243;48.812;9.232;2023-05-07T02:30:00;13.90;99.90
4461;DHT22;2243;48.812;9.232;2023-05-07T02:32:31;13.90;99.90
4461;DHT22;2243;48.812;9.232;2023-05-07T02:35:01;13.90;99.90
4461;DHT22;2243;48.812;9.232;2023-05-07T02:37:33;13.90;99.90
4461;DHT22;2243;48.812;9.232;2023-05-07T02:40:04;13.80;99.90
4461;DHT22;2243;48.812;9.232;2023-05-07T02:42:35;13.80;99.90
4461;DHT22;2243;48.812;9.232;2023-05-07T02:45:07;13.70;99.90
4461;DHT22;2243;48.812;9.232;2023-05-07T02:47:38;13.60;99.90
4461;DHT22;2243;48.812;9.232;2023-05-07T02:50:10;13.60;99.90
4461;DHT22;2243;48.812;9.232;2023-05-07T02:52:41;13.60;99.90
4461;DHT22;2243;48.812;9.232;2023-05-07T02:55:12;13.60;99.90
4461;DHT22;2243;48.812;9.232;2023-05-07T02:57:43;13.70;99.90
4461;DHT22;2243;48.812;9.232;2023-05-07T03:00:16;13.60;99.90
4461;DHT22;2243;48.812;9.232;2023-05-07T03:02:48;13.70;99.90
4461;DHT22;2243;48.812;9.232;2023-05-07T03:05:19;13.70;99.90
4461;DHT22;2243;48.812;9.232;2023-05-07T03:07:51;13.70;99.90
4461;DHT22;2243;48.812;9.232;2023-05-07T03:10:21;13.60;99.90
4461;DHT22;2243;48.812;9.232;2023-05-07T03:12:52;13.60;99.90
4461;DHT22;2243;48.812;9.232;2023-05-07T03:15:23;13.50;99.90
4461;DHT22;2243;48.812;9.232;2023-05-07T03:17:54;13.50;99.90
4461;DHT22;2243;48.812;9.232;2023-05-07T03:20:25;13.40;99.90
4461;DHT22;2243;48.812;9.232;2023-05-07T03:22:56;13.40;99.90
4461;DHT22;2243;48.812;9.232;2023-05-07T03:25:27;13.30;99.90
4461;DHT22;2243;48.812;9.232;2023-05-07T03:28:00;13.20;99.90
4461;DHT22;2243;48.812;9.232;2023-05-07T03:30:31;13.20;99.90
4461;DHT22;2243;48.812;9.232;2023-05-07T03:33:02;13.10;99.90
4461;DHT22;2243;48.812;9.232;2023-05-07T03:35:33;13.10;99.90
4461;DHT22;2243;48.812;9.232;2023-05-07T03:38:04;13.10;99.90
4461;DHT22;2243;48.812;9.232;2023-05-07T03:40:35;13.20;99.90
4461;DHT22;2243;48.812;9.232;2023-05-07T03:43:06;13.10;99.90
4461;DHT22;2243;48.812;9.232;2023-05-07T03:45:37;13.10;99.90
4461;DHT22;2243;48.812;9.232;2023-05-07T03:48:08;13.00;99.90
4461;DHT22;2243;48.812;9.232;2023-05-07T03:50:39;13.00;99.90
4461;DHT22;2243;48.812;9.232;2023-05-07T03:53:10;13.00;99.90
4461;DHT22;2243;48.812;9.232;2023-05-07T03:55:41;12.90;99.90
4461;DHT22;2243;48.812;9.232;2023-05-07T03:58:12;12.90;99.90
4461;DHT22;2243;48.812;9.232;2023-05-07T04:00:42;12.90;99.90
4461;DHT22;2243;48.812;9.232;2023-05-07T04:03:14;12.90;99.90
4461;DHT22;2243;48.812;9.232;2023-05-07T04:05:45;12.90;99.90
4461;DHT22;2243;48.812;9.232;2023-05-07T04:08:16;13.00;99.90
4461;DHT22;2243;48.812;9.232;2023-05-07T04:10:47;12.90;99.90
4461;DHT22;2243;48.812;9.232;2023-05-07T04:13:18;12.80;99.90
4461;DHT22;2243;48.812;9.232;2023-05-07T04:15:49;12.80;99.90
4461;DHT22;2243;48.812;9.232;2023-05-07T04:18:20;12.80;99.90
4461;DHT22;2243;48.812;9.232;2023-05-07T04:20:51;12.80;99.90
4461;DHT22;2243;48.812;9.232;2023-05-07T04:23:22;12.70;99.90
4461;DHT22;2243;48.812;9.232;2023-05-07T04:25:53;12.80;99.90
4461;DHT22;2243;48.812;9.232;2023-05-07T04:28:25;12.80;99.90
4461;DHT22;2243;48.812;9.232;2023-05-07T04:30:56;12.80;99.90
4461;DHT22;2243;48.812;9.232;2023-05-07T04:33:27;12.80;99.90
4461;DHT22;2243;48.812;9.232;2023-05-07T04:36:00;12.90;99.90
4461;DHT22;2243;48.812;9.232;2023-05-07T04:38:33;12.90;99.90
4461;DHT22;2243;48.812;9.232;2023-05-07T04:41:05;13.00;99.90
4461;DHT22;2243;48.812;9.232;2023-05-07T04:43:37;13.10;99.90
4461;DHT22;2243;48.812;9.232;2023-05-07T04:46:08;13.10;99.90
4461;DHT22;2243;48.812;9.232;2023-05-07T04:48:39;13.20;99.90
4461;DHT22;2243;48.812;9.232;2023-05-07T04:51:09;13.30;99.90
4461;DHT22;2243;48.812;9.232;2023-05-07T04:53:40;13.30;99.90
4461;DHT22;2243;48.812;9.232;2023-05-07T04:56:12;13.30;99.90
4461;DHT22;2243;48.812;9.232;2023-05-07T04:58:43;13.30;99.90
4461;DHT22;2243;48.812;9.232;2023-05-07T05:01:14;13.30;99.90
4461;DHT22;2243;48.812;9.232;2023-05-07T05:03:45;13.30;99.90
4461;DHT22;2243;48.812;9.232;2023-05-07T05:06:16;13.40;99.90
4461;DHT22;2243;48.812;9.232;2023-05-07T05:08:47;13.40;99.90
4461;DHT22;2243;48.812;9.232;2023-05-07T05:11:18;13.40;99.90
4461;DHT22;2243;48.812;9.232;2023-05-07T05:13:49;13.50;99.90
4461;DHT22;2243;48.812;9.232;2023-05-07T05:16:20;13.40;99.90
4461;DHT22;2243;48.812;9.232;2023-05-07T05:18:51;13.50;99.90
4461;DHT22;2243;48.812;9.232;2023-05-07T05:21:22;13.60;99.90
4461;DHT22;2243;48.812;9.232;2023-05-07T05:23:53;13.70;99.90
4461;DHT22;2243;48.812;9.232;2023-05-07T05:26:24;13.80;99.90
4461;DHT22;2243;48.812;9.232;2023-05-07T05:28:56;13.80;99.90
4461;DHT22;2243;48.812;9.232;2023-05-07T05:31:27;13.80;99.90
4461;DHT22;2243;48.812;9.232;2023-05-07T05:33:58;13.90;99.90
4461;DHT22;2243;48.812;9.232;2023-05-07T05:36:29;14.00;99.90
4461;DHT22;2243;48.812;9.232;2023-05-07T05:39:01;14.10;99.90
4461;DHT22;2243;48.812;9.232;2023-05-07T05:41:32;14.40;99.90
4461;DHT22;2243;48.812;9.232;2023-05-07T05:44:03;14.40;99.90
4461;DHT22;2243;48.812;9.232;2023-05-07T05:46:34;14.40;99.90
4461;DHT22;2243;48.812;9.232;2023-05-07T05:49:06;14.40;99.90
4461;DHT22;2243;48.812;9.232;2023-05-07T05:51:37;14.40;99.90
4461;DHT22;2243;48.812;9.232;2023-05-07T05:54:08;14.40;99.90
4461;DHT22;2243;48.812;9.232;2023-05-07T05:56:39;14.50;99.90
4461;DHT22;2243;48.812;9.232;2023-05-07T05:59:10;14.50;99.90
4461;DHT22;2243;48.812;9.232;2023-05-07T06:01:41;14.60;99.90
4461;DHT22;2243;48.812;9.232;2023-05-07T06:04:12;14.70;99.90
4461;DHT22;2243;48.812;9.232;2023-05-07T06:06:43;14.80;99.90
4461;DHT22;2243;48.812;9.232;2023-05-07T06:09:14;15.10;99.90
4461;DHT22;2243;48.812;9.232;2023-05-07T06:11:45;15.30;99.90
4461;DHT22;2243;48.812;9.232;2023-05-07T06:14:16;15.30;99.90
4461;DHT22;2243;48.812;9.232;2023-05-07T06:16:47;15.30;99.90
4461;DHT22;2243;48.812;9.232;2023-05-07T06:19:18;15.30;99.90
4461;DHT22;2243;48.812;9.232;2023-05-07T06:21:55;15.40;99.90
4461;DHT22;2243;48.812;9.232;2023-05-07T06:24:29;15.40;99.90
4461;DHT22;2243;48.812;9.232;2023-05-07T06:27:00;15.40;99.90
4461;DHT22;2243;48.812;9.232;2023-05-07T06:29:31;15.50;99.90
4461;DHT22;2243;48.812;9.232;2023-05-07T06:32:10;15.50;99.90
4461;DHT22;2243;48.812;9.232;2023-05-07T06:34:42;15.40;99.90
4461;DHT22;2243;48.812;9.232;2023-05-07T06:37:13;15.40;99.90
4461;DHT22;2243;48.812;9.232;2023-05-07T06:39:44;15.50;99.90
4461;DHT22;2243;48.812;9.232;2023-05-07T06:42:15;15.50;99.90
4461;DHT22;2243;48.812;9.232;2023-05-07T06:44:46;15.60;99.90
4461;DHT22;2243;48.812;9.232;2023-05-07T06:47:17;15.70;99.90
4461;DHT22;2243;48.812;9.232;2023-05-07T06:49:48;15.70;99.90
4461;DHT22;2243;48.812;9.232;2023-05-07T06:52:19;15.80;99.90
4461;DHT22;2243;48.812;9.232;2023-05-07T06:54:50;15.80;99.90
4461;DHT22;2243;48.812;9.232;2023-05-07T06:57:21;15.90;99.90
4461;DHT22;2243;48.812;9.232;2023-05-07T06:59:51;16.10;99.90
4461;DHT22;2243;48.812;9.232;2023-05-07T07:02:22;16.20;99.90
4461;DHT22;2243;48.812;9.232;2023-05-07T07:04:53;16.30;99.90
4461;DHT22;2243;48.812;9.232;2023-05-07T07:07:24;16.40;99.90
4461;DHT22;2243;48.812;9.232;2023-05-07T07:09:55;16.50;99.90
4461;DHT22;2243;48.812;9.232;2023-05-07T07:12:26;16.70;99.90
4461;DHT22;2243;48.812;9.232;2023-05-07T07:14:59;16.70;99.90
4461;DHT22;2243;48.812;9.232;2023-05-07T07:17:30;16.90;99.90
4461;DHT22;2243;48.812;9.232;2023-05-07T07:20:01;17.00;99.90
4461;DHT22;2243;48.812;9.232;2023-05-07T07:22:33;17.00;99.90
4461;DHT22;2243;48.812;9.232;2023-05-07T07:25:04;17.10;99.90
4461;DHT22;2243;48.812;9.232;2023-05-07T07:27:36;17.20;99.90
4461;DHT22;2243;48.812;9.232;2023-05-07T07:30:08;17.40;99.90
4461;DHT22;2243;48.812;9.232;2023-05-07T07:32:39;17.50;99.90
4461;DHT22;2243;48.812;9.232;2023-05-07T07:35:10;17.50;99.90
4461;DHT22;2243;48.812;9.232;2023-05-07T07:37:41;17.70;99.90
4461;DHT22;2243;48.812;9.232;2023-05-07T07:40:12;17.80;99.90
4461;DHT22;2243;48.812;9.232;2023-05-07T07:42:44;17.90;99.90
4461;DHT22;2243;48.812;9.232;2023-05-07T07:45:15;18.00;99.90
4461;DHT22;2243;48.812;9.232;2023-05-07T07:47:47;18.20;99.90
4461;DHT22;2243;48.812;9.232;2023-05-07T07:50:18;18.40;99.90
4461;DHT22;2243;48.812;9.232;2023-05-07T07:53:09;18.60;99.90
4461;DHT22;2243;48.812;9.232;2023-05-07T07:55:40;18.80;99.90
4461;DHT22;2243;48.812;9.232;2023-05-07T07:58:11;18.90;99.90
4461;DHT22;2243;48.812;9.232;2023-05-07T08:00:42;19.00;99.90
4461;DHT22;2243;48.812;9.232;2023-05-07T08:03:13;19.10;99.90
4461;DHT22;2243;48.812;9.232;2023-05-07T08:05:47;19.30;99.90
4461;DHT22;2243;48.812;9.232;2023-05-07T08:08:20;19.40;99.90
4461;DHT22;2243;48.812;9.232;2023-05-07T08:10:53;19.50;99.90
4461;DHT22;2243;48.812;9.232;2023-05-07T08:13:23;19.70;99.90
4461;DHT22;2243;48.812;9.232;2023-05-07T08:15:54;19.70;99.90
4461;DHT22;2243;48.812;9.232;2023-05-07T08:18:26;19.70;99.90
4461;DHT22;2243;48.812;9.232;2023-05-07T08:20:59;19.90;99.90
4461;DHT22;2243;48.812;9.232;2023-05-07T08:23:30;19.90;99.90
4461;DHT22;2243;48.812;9.232;2023-05-07T08:26:01;19.90;99.90
4461;DHT22;2243;48.812;9.232;2023-05-07T08:28:32;19.90;99.90
4461;DHT22;2243;48.812;9.232;2023-05-07T08:31:03;20.00;99.90
4461;DHT22;2243;48.812;9.232;2023-05-07T08:33:34;20.10;99.90
4461;DHT22;2243;48.812;9.232;2023-05-07T08:36:05;20.20;99.90
4461;DHT22;2243;48.812;9.232;2023-05-07T08:38:37;20.30;99.90
4461;DHT22;2243;48.812;9.232;2023-05-07T08:41:11;20.30;99.90
4461;DHT22;2243;48.812;9.232;2023-05-07T08:43:46;20.40;99.90
4461;DHT22;2243;48.812;9.232;2023-05-07T08:46:21;20.50;99.90
4461;DHT22;2243;48.812;9.232;2023-05-07T08:48:52;20.50;99.90
4461;DHT22;2243;48.812;9.232;2023-05-07T08:51:23;20.50;99.90
4461;DHT22;2243;48.812;9.232;2023-05-07T08:53:54;20.50;99.90
4461;DHT22;2243;48.812;9.232;2023-05-07T08:56:25;20.50;99.90
4461;DHT22;2243;48.812;9.232;2023-05-07T08:58:56;20.60;99.90
4461;DHT22;2243;48.812;9.232;2023-05-07T09:01:29;20.70;99.90
4461;DHT22;2243;48.812;9.232;2023-05-07T09:04:00;20.80;99.90
4461;DHT22;2243;48.812;9.232;2023-05-07T09:06:31;20.80;99.90
4461;DHT22;2243;48.812;9.232;2023-05-07T09:09:02;20.90;99.90
4461;DHT22;2243;48.812;9.232;2023-05-07T09:11:35;21.00;99.90
4461;DHT22;2243;48.812;9.232;2023-05-07T09:14:06;21.00;99.90
4461;DHT22;2243;48.812;9.232;2023-05-07T09:16:39;21.10;99.90
4461;DHT22;2243;48.812;9.232;2023-05-07T09:19:10;21.20;99.90
4461;DHT22;2243;48.812;9.232;2023-05-07T09:21:41;21.30;99.90
4461;DHT22;2243;48.812;9.232;2023-05-07T09:24:15;21.50;99.90
4461;DHT22;2243;48.812;9.232;2023-05-07T09:26:46;21.70;99.90
4461;DHT22;2243;48.812;9.232;2023-05-07T09:29:18;21.70;99.90
4461;DHT22;2243;48.812;9.232;2023-05-07T09:31:49;21.80;99.90
4461;DHT22;2243;48.812;9.232;2023-05-07T09:34:20;21.90;99.90
4461;DHT22;2243;48.812;9.232;2023-05-07T09:36:51;21.90;99.90
4461;DHT22;2243;48.812;9.232;2023-05-07T09:39:23;22.10;99.90
4461;DHT22;2243;48.812;9.232;2023-05-07T09:41:54;22.20;99.90
4461;DHT22;2243;48.812;9.232;2023-05-07T09:44:25;22.30;99.90
4461;DHT22;2243;48.812;9.232;2023-05-07T09:46:59;22.20;99.90
4461;DHT22;2243;48.812;9.232;2023-05-07T09:49:34;22.30;99.90
4461;DHT22;2243;48.812;9.232;2023-05-07T09:52:07;22.40;99.90
4461;DHT22;2243;48.812;9.232;2023-05-07T09:54:40;22.60;99.90
4461;DHT22;2243;48.812;9.232;2023-05-07T09:57:13;22.60;98.80
4461;DHT22;2243;48.812;9.232;2023-05-07T09:59:45;22.60;98.40
4461;DHT22;2243;48.812;9.232;2023-05-07T10:02:17;22.70;99.40
4461;DHT22;2243;48.812;9.232;2023-05-07T10:04:50;22.70;98.70
4461;DHT22;2243;48.812;9.232;2023-05-07T10:07:22;22.60;98.50
4461;DHT22;2243;48.812;9.232;2023-05-07T10:09:56;22.80;98.70
4461;DHT22;2243;48.812;9.232;2023-05-07T10:12:29;22.80;98.10
4461;DHT22;2243;48.812;9.232;2023-05-07T10:15:00;22.80;98.20
4461;DHT22;2243;48.812;9.232;2023-05-07T10:17:34;22.80;98.00
4461;DHT22;2243;48.812;9.232;2023-05-07T10:20:07;22.90;97.90
4461;DHT22;2243;48.812;9.232;2023-05-07T10:22:41;22.90;97.50
4461;DHT22;2243;48.812;9.232;2023-05-07T10:25:28;22.90;97.70
4461;DHT22;2243;48.812;9.232;2023-05-07T10:28:05;23.00;98.20
4461;DHT22;2243;48.812;9.232;2023-05-07T10:30:53;23.30;98.00
4461;DHT22;2243;48.812;9.232;2023-05-07T10:33:33;23.50;97.60
4461;DHT22;2243;48.812;9.232;2023-05-07T10:36:05;23.70;96.80
4461;DHT22;2243;48.812;9.232;2023-05-07T10:38:38;23.60;96.80
4461;DHT22;2243;48.812;9.232;2023-05-07T10:41:11;23.70;96.80
4461;DHT22;2243;48.812;9.232;2023-05-07T10:43:44;23.90;96.40
4461;DHT22;2243;48.812;9.232;2023-05-07T10:51:35;24.40;95.10
4461;DHT22;2243;48.812;9.232;2023-05-07T10:54:26;24.40;95.60
4461;DHT22;2243;48.812;9.232;2023-05-07T10:57:33;24.30;95.00
4461;DHT22;2243;48.812;9.232;2023-05-07T11:03:08;24.40;95.40
4461;DHT22;2243;48.812;9.232;2023-05-07T11:05:40;24.80;96.20
4461;DHT22;2243;48.812;9.232;2023-05-07T11:08:11;24.70;94.40
4461;DHT22;2243;48.812;9.232;2023-05-07T11:10:56;24.80;94.80
4461;DHT22;2243;48.812;9.232;2023-05-07T11:13:45;25.00;95.00
4461;DHT22;2243;48.812;9.232;2023-05-07T11:16:21;25.00;94.90
4461;DHT22;2243;48.812;9.232;2023-05-07T11:18:57;25.10;95.20
4461;DHT22;2243;48.812;9.232;2023-05-07T11:21:33;25.40;94.80
4461;DHT22;2243;48.812;9.232;2023-05-07T11:24:12;25.90;93.70
4461;DHT22;2243;48.812;9.232;2023-05-07T11:26:48;26.10;92.50
4461;DHT22;2243;48.812;9.232;2023-05-07T11:29:22;26.10;92.50
4461;DHT22;2243;48.812;9.232;2023-05-07T11:31:54;26.00;93.70
4461;DHT22;2243;48.812;9.232;2023-05-07T11:34:26;25.90;93.00
4461;DHT22;2243;48.812;9.232;2023-05-07T11:36:58;25.80;92.10
4461;DHT22;2243;48.812;9.232;2023-05-07T11:39:33;25.70;92.80
4461;DHT22;2243;48.812;9.232;2023-05-07T11:42:04;25.60;92.60
4461;DHT22;2243;48.812;9.232;2023-05-07T11:44:45;25.60;92.90
4461;DHT22;2243;48.812;9.232;2023-05-07T11:47:20;25.70;92.90
4461;DHT22;2243;48.812;9.232;2023-05-07T11:49:53;25.80;92.50
4461;DHT22;2243;48.812;9.232;2023-05-07T11:52:24;25.80;91.70
4461;DHT22;2243;48.812;9.232;2023-05-07T11:54:56;25.60;92.00
4461;DHT22;2243;48.812;9.232;2023-05-07T11:57:29;25.50;92.20
4461;DHT22;2243;48.812;9.232;2023-05-07T12:00:00;25.20;92.50
4461;DHT22;2243;48.812;9.232;2023-05-07T12:02:35;25.10;92.10
4461;DHT22;2243;48.812;9.232;2023-05-07T12:05:07;24.90;92.70
4461;DHT22;2243;48.812;9.232;2023-05-07T12:07:38;24.70;92.20
4461;DHT22;2243;48.812;9.232;2023-05-07T12:10:11;24.70;92.60
4461;DHT22;2243;48.812;9.232;2023-05-07T12:12:46;24.60;93.00
4461;DHT22;2243;48.812;9.232;2023-05-07T12:15:17;24.50;93.90
4461;DHT22;2243;48.812;9.232;2023-05-07T12:17:53;24.40;93.80
4461;DHT22;2243;48.812;9.232;2023-05-07T12:20:25;24.20;93.70
4461;DHT22;2243;48.812;9.232;2023-05-07T12:22:56;24.10;95.90
4461;DHT22;2243;48.812;9.232;2023-05-07T12:25:31;23.90;96.20
4461;DHT22;2243;48.812;9.232;2023-05-07T12:28:03;23.80;97.30
4461;DHT22;2243;48.812;9.232;2023-05-07T12:30:39;23.60;98.40
4461;DHT22;2243;48.812;9.232;2023-05-07T12:33:10;23.40;99.70
4461;DHT22;2243;48.812;9.232;2023-05-07T12:35:42;23.30;99.90
4461;DHT22;2243;48.812;9.232;2023-05-07T12:38:15;23.20;99.90
4461;DHT22;2243;48.812;9.232;2023-05-07T12:40:54;23.10;99.70
4461;DHT22;2243;48.812;9.232;2023-05-07T12:43:27;23.00;99.70
4461;DHT22;2243;48.812;9.232;2023-05-07T12:46:07;22.80;99.90
4461;DHT22;2243;48.812;9.232;2023-05-07T12:48:43;22.40;99.70
4461;DHT22;2243;48.812;9.232;2023-05-07T12:51:16;22.20;99.90
4461;DHT22;2243;48.812;9.232;2023-05-07T12:53:47;21.80;99.90
4461;DHT22;2243;48.812;9.232;2023-05-07T12:56:18;21.40;99.90
4461;DHT22;2243;48.812;9.232;2023-05-07T12:58:49;21.00;99.90
4461;DHT22;2243;48.812;9.232;2023-05-07T13:01:20;20.50;99.90
4461;DHT22;2243;48.812;9.232;2023-05-07T13:03:52;20.00;99.90
4461;DHT22;2243;48.812;9.232;2023-05-07T13:06:23;19.50;99.90
4461;DHT22;2243;48.812;9.232;2023-05-07T13:08:54;19.30;99.90
4461;DHT22;2243;48.812;9.232;2023-05-07T13:11:25;19.00;99.90
4461;DHT22;2243;48.812;9.232;2023-05-07T13:13:56;18.70;99.90
4461;DHT22;2243;48.812;9.232;2023-05-07T13:16:27;18.40;99.90
4461;DHT22;2243;48.812;9.232;2023-05-07T13:18:58;18.20;99.90
4461;DHT22;2243;48.812;9.232;2023-05-07T13:21:29;18.00;99.90
4461;DHT22;2243;48.812;9.232;2023-05-07T13:24:02;17.70;99.90
4461;DHT22;2243;48.812;9.232;2023-05-07T13:26:33;17.40;99.90
4461;DHT22;2243;48.812;9.232;2023-05-07T13:29:04;17.10;99.90
4461;DHT22;2243;48.812;9.232;2023-05-07T13:31:35;16.80;99.90
4461;DHT22;2243;48.812;9.232;2023-05-07T13:34:07;16.70;99.90
4461;DHT22;2243;48.812;9.232;2023-05-07T13:36:37;16.60;99.90
4461;DHT22;2243;48.812;9.232;2023-05-07T13:39:10;16.60;99.90
4461;DHT22;2243;48.812;9.232;2023-05-07T13:41:41;16.60;99.90
4461;DHT22;2243;48.812;9.232;2023-05-07T13:44:12;16.40;99.90
4461;DHT22;2243;48.812;9.232;2023-05-07T13:46:43;16.20;99.90
4461;DHT22;2243;48.812;9.232;2023-05-07T13:49:14;16.30;99.90
4461;DHT22;2243;48.812;9.232;2023-05-07T13:51:45;16.30;99.90
4461;DHT22;2243;48.812;9.232;2023-05-07T13:54:16;16.40;99.90
4461;DHT22;2243;48.812;9.232;2023-05-07T13:56:47;16.40;99.90
4461;DHT22;2243;48.812;9.232;2023-05-07T13:59:18;16.30;99.90
4461;DHT22;2243;48.812;9.232;2023-05-07T14:01:49;16.40;99.90
4461;DHT22;2243;48.812;9.232;2023-05-07T14:04:20;16.40;99.90
4461;DHT22;2243;48.812;9.232;2023-05-07T14:06:51;16.50;99.90
4461;DHT22;2243;48.812;9.232;2023-05-07T14:09:22;16.70;99.90
4461;DHT22;2243;48.812;9.232;2023-05-07T14:11:53;16.80;99.90
4461;DHT22;2243;48.812;9.232;2023-05-07T14:14:24;16.80;99.90
4461;DHT22;2243;48.812;9.232;2023-05-07T14:16:55;17.00;99.90
4461;DHT22;2243;48.812;9.232;2023-05-07T14:19:26;16.90;99.90
4461;DHT22;2243;48.812;9.232;2023-05-07T14:21:57;16.80;99.90
4461;DHT22;2243;48.812;9.232;2023-05-07T14:24:29;16.60;99.90
4461;DHT22;2243;48.812;9.232;2023-05-07T14:27:07;16.40;99.90
4461;DHT22;2243;48.812;9.232;2023-05-07T14:29:38;16.40;99.90
4461;DHT22;2243;48.812;9.232;2023-05-07T14:32:10;16.30;99.90
4461;DHT22;2243;48.812;9.232;2023-05-07T14:34:42;16.40;99.90
4461;DHT22;2243;48.812;9.232;2023-05-07T14:37:13;16.30;99.90
4461;DHT22;2243;48.812;9.232;2023-05-07T14:39:47;16.40;99.90
4461;DHT22;2243;48.812;9.232;2023-05-07T14:42:20;16.50;99.90
4461;DHT22;2243;48.812;9.232;2023-05-07T14:44:51;16.60;99.90
4461;DHT22;2243;48.812;9.232;2023-05-07T14:47:23;16.70;99.90
4461;DHT22;2243;48.812;9.232;2023-05-07T14:49:54;16.70;99.90
4461;DHT22;2243;48.812;9.232;2023-05-07T14:52:25;16.70;99.90
4461;DHT22;2243;48.812;9.232;2023-05-07T14:54:56;16.80;99.90
4461;DHT22;2243;48.812;9.232;2023-05-07T14:57:28;16.80;99.90
4461;DHT22;2243;48.812;9.232;2023-05-07T15:00:03;16.80;99.90
4461;DHT22;2243;48.812;9.232;2023-05-07T15:02:35;16.80;99.90
4461;DHT22;2243;48.812;9.232;2023-05-07T15:05:06;16.90;99.90
4461;DHT22;2243;48.812;9.232;2023-05-07T15:07:37;16.80;99.90
4461;DHT22;2243;48.812;9.232;2023-05-07T15:10:08;16.90;99.90
4461;DHT22;2243;48.812;9.232;2023-05-07T15:12:40;16.80;99.90
4461;DHT22;2243;48.812;9.232;2023-05-07T15:15:11;16.90;99.90
4461;DHT22;2243;48.812;9.232;2023-05-07T15:17:42;16.90;99.90
4461;DHT22;2243;48.812;9.232;2023-05-07T15:20:13;16.80;99.90
4461;DHT22;2243;48.812;9.232;2023-05-07T15:22:44;16.90;99.90
4461;DHT22;2243;48.812;9.232;2023-05-07T15:25:15;16.90;99.90
4461;DHT22;2243;48.812;9.232;2023-05-07T15:27:46;17.00;99.90
4461;DHT22;2243;48.812;9.232;2023-05-07T15:30:17;17.00;99.90
4461;DHT22;2243;48.812;9.232;2023-05-07T15:32:50;17.10;99.90
4461;DHT22;2243;48.812;9.232;2023-05-07T15:35:21;17.20;99.90
4461;DHT22;2243;48.812;9.232;2023-05-07T15:37:53;17.20;99.90
4461;DHT22;2243;48.812;9.232;2023-05-07T15:40:24;17.40;99.90
4461;DHT22;2243;48.812;9.232;2023-05-07T15:42:56;17.40;99.90
4461;DHT22;2243;48.812;9.232;2023-05-07T15:45:27;17.40;99.90
4461;DHT22;2243;48.812;9.232;2023-05-07T15:47:58;17.50;99.90
4461;DHT22;2243;48.812;9.232;2023-05-07T15:50:29;17.50;99.90
4461;DHT22;2243;48.812;9.232;2023-05-07T15:53:00;17.50;99.90
4461;DHT22;2243;48.812;9.232;2023-05-07T15:55:31;17.50;99.90
4461;DHT22;2243;48.812;9.232;2023-05-07T15:58:03;17.60;99.90
4461;DHT22;2243;48.812;9.232;2023-05-07T16:00:37;17.60;99.90
4461;DHT22;2243;48.812;9.232;2023-05-07T16:03:10;17.60;99.90
4461;DHT22;2243;48.812;9.232;2023-05-07T16:05:41;17.60;99.90
4461;DHT22;2243;48.812;9.232;2023-05-07T16:08:12;17.60;99.90
4461;DHT22;2243;48.812;9.232;2023-05-07T16:10:43;17.60;99.90
4461;DHT22;2243;48.812;9.232;2023-05-07T16:13:14;17.50;99.90
4461;DHT22;2243;48.812;9.232;2023-05-07T16:15:48;17.60;99.90
4461;DHT22;2243;48.812;9.232;2023-05-07T16:18:20;17.60;99.90
4461;DHT22;2243;48.812;9.232;2023-05-07T16:20:51;17.60;99.90
4461;DHT22;2243;48.812;9.232;2023-05-07T16:23:22;17.60;99.90
4461;DHT22;2243;48.812;9.232;2023-05-07T16:25:53;17.60;99.90
4461;DHT22;2243;48.812;9.232;2023-05-07T16:28:24;17.60;99.90
4461;DHT22;2243;48.812;9.232;2023-05-07T16:30:55;17.60;99.90
4461;DHT22;2243;48.812;9.232;2023-05-07T16:33:26;17.70;99.90
4461;DHT22;2243;48.812;9.232;2023-05-07T16:35:57;17.70;99.90
4461;DHT22;2243;48.812;9.232;2023-05-07T16:38:28;17.70;99.90
4461;DHT22;2243;48.812;9.232;2023-05-07T16:41:02;17.80;99.90